Time;durP1;ratioP1;P1;durP2;ratioP2;P2;SDS_P1;SDS_P2;PMS_P1;PMS_P2;Temp;Humidity;BMP_temperature;BMP_pressure;BME280_temperature;BME280_humidity;BME280_pressure;Samples;Min_cycle;Max_cycle;Signal;HPM_P1;HPM_P2
2022/08/30 00:07:34;;;;;;;1.88;1.00;;;;;;;;;;4963270;28;20062;-94
2022/08/30 00:10:03;;;;;;;3.53;1.05;;;;;;;;;;4947533;28;20050;-94
2022/08/30 00:12:36;;;;;;;2.95;0.98;;;;;;;;;;4948314;28;20392;-92
2022/08/30 00:15:05;;;;;;;2.40;1.40;;;;;;;;;;4961848;28;20060;-93
2022/08/30 00:17:40;;;;;;;4.13;1.30;;;;;;;;;;4979066;28;20133;-93
2022/08/30 00:20:11;;;;;;;3.20;1.13;;;;;;;;;;4978377;28;20451;-94
2022/08/30 00:22:44;;;;;;;6.03;1.27;;;;;;;;;;4963364;28;20394;-94
2022/08/30 00:25:12;;;;;;;1.65;0.90;;;;;;;;;;4946722;28;20054;-96
2022/08/30 00:27:40;;;;;;;3.85;1.20;;;;;;;;;;4962459;28;20141;-96
2022/08/30 00:30:15;;;;;;;3.38;1.20;;;;;;;;;;4963923;28;20491;-96
2022/08/30 00:32:45;;;;;;;2.50;1.10;;;;;;;;;;4974570;28;20065;-96
2022/08/30 00:35:42;;;;;;;2.20;0.95;;;;;;;;;;4936376;29;20056;-96
2022/08/30 00:38:14;;;;;;;5.03;1.15;;;;;;;;;;4921037;29;20052;-96
2022/08/30 00:40:46;;;;;;;1.88;0.85;;;;;;;;;;4918278;29;20096;-94
2022/08/30 00:43:38;;;;;;;2.70;1.00;;;;;;;;;;4928779;29;20070;-95
2022/08/30 00:46:07;;;;;;;2.13;1.02;;;;;;;;;;4909367;29;20078;-96
2022/08/30 00:48:43;;;;;;;3.67;1.35;;;;;;;;;;4910355;29;20062;-96
2022/08/30 00:51:13;;;;;;;2.22;1.15;;;;;;;;;;4928606;29;20520;-93
2022/08/30 00:53:45;;;;;;;2.88;1.17;;;;;;;;;;4938297;29;20051;-92
2022/08/30 00:56:13;;;;;;;5.38;1.40;;;;;;;;;;4954345;29;20055;-93
2022/08/30 00:58:45;;;;;;;3.25;1.20;;;;;;;;;;4954225;29;20085;-94
2022/08/30 01:01:57;;;;;;;2.35;1.30;;;;;;;;;;4955373;29;20074;-96
2022/08/30 01:05:24;;;;;;;3.28;1.35;;;;;;;;;;4955552;28;20047;-96
2022/08/30 01:08:26;;;;;;;2.03;1.10;;;;;;;;;;4949188;28;20034;-96
2022/08/30 01:11:02;;;;;;;2.75;1.15;;;;;;;;;;4938753;29;20047;-95
2022/08/30 01:13:57;;;;;;;4.55;1.10;;;;;;;;;;4952496;28;20114;-96
2022/08/30 01:16:50;;;;;;;2.35;1.20;;;;;;;;;;4957740;28;20069;-96
2022/08/30 01:19:30;;;;;;;3.15;1.27;;;;;;;;;;4942321;28;20467;-92
2022/08/30 01:22:06;;;;;;;3.28;1.42;;;;;;;;;;4958072;28;20051;-93
2022/08/30 01:24:34;;;;;;;3.38;1.25;;;;;;;;;;4957084;28;20117;-93
2022/08/30 01:27:02;;;;;;;2.75;1.05;;;;;;;;;;4941083;28;20149;-93
2022/08/30 01:29:30;;;;;;;4.13;1.40;;;;;;;;;;4957296;28;20051;-93
2022/08/30 01:32:05;;;;;;;2.05;0.90;;;;;;;;;;4947201;28;20051;-96
2022/08/30 01:34:36;;;;;;;3.15;1.00;;;;;;;;;;4954263;28;20090;-96
2022/08/30 02:32:17;;;;;;;3.90;1.15;;;;;;;;;;1587393;23;20390;-85
2022/08/30 02:34:46;;;;;;;3.38;1.30;;;;;;;;;;4978098;28;20050;-85
2022/08/30 03:00:32;;;;;;;2.80;0.98;;;;;;;;;;4984988;28;20046;-84
2022/08/30 03:03:06;;;;;;;2.55;1.30;;;;;;;;;;4969548;28;20073;-84
2022/08/30 03:33:44;;;;;;;1.95;1.00;;;;;;;;;;4988015;28;20051;-84
2022/08/30 03:36:12;;;;;;;2.13;1.08;;;;;;;;;;4950441;28;20367;-85
2022/08/30 03:39:06;;;;;;;2.85;1.23;;;;;;;;;;4982367;28;20057;-84
2022/08/30 03:41:44;;;;;;;2.55;1.00;;;;;;;;;;4981671;28;20082;-84
2022/08/30 04:26:02;;;;;;;4.72;1.10;;;;;;;;;;4980027;28;20070;-85
2022/08/30 04:28:35;;;;;;;2.80;1.00;;;;;;;;;;4964554;28;20054;-84
2022/08/30 04:31:10;;;;;;;2.08;1.02;;;;;;;;;;4963691;28;20114;-84
2022/08/30 04:33:39;;;;;;;3.40;1.20;;;;;;;;;;4973468;28;20083;-84
2022/08/30 04:36:12;;;;;;;3.22;1.20;;;;;;;;;;4989812;28;20086;-84
2022/08/30 04:38:40;;;;;;;2.28;1.00;;;;;;;;;;4980939;28;20063;-84
2022/08/30 04:41:17;;;;;;;4.43;1.30;;;;;;;;;;4979907;28;20062;-84
2022/08/30 04:43:46;;;;;;;2.60;1.15;;;;;;;;;;4958955;28;20126;-85
2022/08/30 04:46:14;;;;;;;5.00;1.20;;;;;;;;;;4961534;28;20839;-84
2022/08/30 04:48:48;;;;;;;2.72;1.20;;;;;;;;;;4959697;28;20070;-83
2022/08/30 04:51:17;;;;;;;7.72;1.40;;;;;;;;;;4976036;28;20101;-84
2022/08/30 05:12:26;;;;;;;3.15;1.02;;;;;;;;;;4973733;28;20514;-85
2022/08/30 05:14:57;;;;;;;2.67;1.20;;;;;;;;;;4973470;28;20062;-85
2022/08/30 05:17:30;;;;;;;2.50;1.23;;;;;;;;;;4973470;28;20152;-86
2022/08/30 05:20:00;;;;;;;2.97;1.13;;;;;;;;;;4975058;28;20082;-88
2022/08/30 05:22:49;;;;;;;2.75;0.93;;;;;;;;;;4930276;28;20982;-83
2022/08/30 05:25:41;;;;;;;3.10;1.17;;;;;;;;;;4962962;28;20578;-84
2022/08/30 05:28:35;;;;;;;2.90;1.27;;;;;;;;;;4937484;28;20142;-85
2022/08/30 05:31:18;;;;;;;4.40;1.40;;;;;;;;;;4940849;28;20133;-86
2022/08/30 05:34:03;;;;;;;2.03;1.10;;;;;;;;;;4987456;28;20065;-85
2022/08/30 05:37:10;;;;;;;2.35;1.05;;;;;;;;;;4945411;28;20051;-84
2022/08/30 05:39:40;;;;;;;3.30;1.33;;;;;;;;;;4943528;28;20549;-83
2022/08/30 05:42:18;;;;;;;2.50;1.33;;;;;;;;;;4941286;28;20053;-83
2022/08/30 05:44:51;;;;;;;2.85;1.30;;;;;;;;;;4941056;28;20059;-83
2022/08/30 05:47:24;;;;;;;3.30;1.13;;;;;;;;;;4941682;28;20146;-83
2022/08/30 05:50:17;;;;;;;2.72;1.38;;;;;;;;;;4942654;28;20065;-83
2022/08/30 05:52:44;;;;;;;7.60;1.58;;;;;;;;;;4943949;28;20059;-83
2022/08/30 05:55:40;;;;;;;2.22;1.13;;;;;;;;;;4931728;29;20062;-82
2022/08/30 05:58:12;;;;;;;2.85;1.25;;;;;;;;;;4928635;29;20084;-82
2022/08/30 06:00:40;;;;;;;2.70;1.10;;;;;;;;;;4928728;29;20110;-82
2022/08/30 06:03:10;;;;;;;4.55;1.40;;;;;;;;;;4947140;28;20055;-82
2022/08/30 06:05:44;;;;;;;3.60;1.48;;;;;;;;;;4951225;28;20051;-84
2022/08/30 06:08:21;;;;;;;3.83;2.08;;;;;;;;;;4952078;28;20077;-84
2022/08/30 06:10:48;;;;;;;3.47;1.65;;;;;;;;;;4969098;28;20050;-85
2022/08/30 06:13:16;;;;;;;3.00;1.58;;;;;;;;;;4971875;28;20047;-84
2022/08/30 06:15:58;;;;;;;3.15;1.48;;;;;;;;;;4990471;28;20097;-84
2022/08/30 06:18:26;;;;;;;3.50;1.50;;;;;;;;;;4980771;28;20238;-84
2022/08/30 06:21:02;;;;;;;5.47;1.80;;;;;;;;;;5000613;28;20050;-84
2022/08/30 06:23:30;;;;;;;2.80;1.63;;;;;;;;;;4989490;28;20086;-84
2022/08/30 06:26:06;;;;;;;4.03;1.83;;;;;;;;;;4979547;28;20249;-84
2022/08/30 06:28:34;;;;;;;2.65;1.30;;;;;;;;;;4987714;28;21013;-84
2022/08/30 06:31:09;;;;;;;3.00;1.48;;;;;;;;;;4965911;28;20054;-84
2022/08/30 06:33:43;;;;;;;2.83;1.50;;;;;;;;;;4967971;28;20195;-84
2022/08/30 06:36:18;;;;;;;2.28;1.20;;;;;;;;;;4985199;28;20178;-84
2022/08/30 06:39:10;;;;;;;3.03;1.35;;;;;;;;;;5001175;28;20050;-84
2022/08/30 06:41:41;;;;;;;2.38;1.35;;;;;;;;;;4968997;28;20468;-84
2022/08/30 06:44:28;;;;;;;2.85;1.35;;;;;;;;;;4957256;28;20175;-84
2022/08/30 06:46:56;;;;;;;3.17;1.30;;;;;;;;;;4975255;28;20054;-83
2022/08/30 06:49:30;;;;;;;4.70;1.55;;;;;;;;;;4981870;28;20050;-84
2022/08/30 06:52:24;;;;;;;2.88;1.30;;;;;;;;;;4981730;28;20096;-83
2022/08/30 06:54:54;;;;;;;5.45;1.85;;;;;;;;;;4959819;28;20050;-84
2022/08/30 06:57:46;;;;;;;2.85;0.95;;;;;;;;;;4988629;28;20046;-84
2022/08/30 07:00:40;;;;;;;2.28;1.15;;;;;;;;;;4989701;28;20053;-84
2022/08/30 07:03:22;;;;;;;6.90;1.35;;;;;;;;;;4960969;28;20201;-83
2022/08/30 07:05:50;;;;;;;2.75;1.00;;;;;;;;;;4985954;28;20046;-83
2022/08/30 07:08:42;;;;;;;5.32;1.45;;;;;;;;;;4985278;28;20520;-84
2022/08/30 07:11:36;;;;;;;3.67;0.90;;;;;;;;;;4968318;28;20114;-84
2022/08/30 07:14:04;;;;;;;3.20;1.30;;;;;;;;;;4986699;28;20046;-84
2022/08/30 07:16:34;;;;;;;2.53;1.30;;;;;;;;;;4984332;28;20051;-83
2022/08/30 07:19:03;;;;;;;1.77;0.98;;;;;;;;;;4985939;28;20185;-84
2022/08/30 07:21:45;;;;;;;5.43;1.48;;;;;;;;;;4999407;28;20149;-84
2022/08/30 07:24:36;;;;;;;4.45;1.30;;;;;;;;;;4973741;28;20046;-84
2022/08/30 07:27:18;;;;;;;2.92;1.40;;;;;;;;;;4984471;28;20102;-84
2022/08/30 07:30:04;;;;;;;3.35;1.20;;;;;;;;;;4983709;28;20862;-85
2022/08/30 07:32:46;;;;;;;6.72;1.27;;;;;;;;;;4966832;28;20097;-84
2022/08/30 07:35:28;;;;;;;2.88;1.00;;;;;;;;;;4936896;28;20097;-84
2022/08/30 07:39:37;;;;;;;2.88;1.55;;;;;;;;;;4983972;28;20050;-84
2022/08/30 07:43:57;;;;;;;4.60;1.30;;;;;;;;;;4969518;28;20038;-86
2022/08/30 07:48:38;;;;;;;2.92;1.10;;;;;;;;;;4872689;29;20053;-86
2022/08/30 07:53:13;;;;;;;3.03;1.25;;;;;;;;;;4779636;29;20048;-86
2022/08/30 08:11:13;;;;;;;3.17;1.45;;;;;;;;;;4689475;30;20049;-86
2022/08/30 08:15:48;;;;;;;4.63;1.17;;;;;;;;;;4686238;30;20125;-86
2022/08/30 08:20:08;;;;;;;2.65;1.15;;;;;;;;;;4725567;30;20057;-86
2022/08/30 08:24:35;;;;;;;4.47;1.33;;;;;;;;;;4703902;30;20061;-85
2022/08/30 08:28:48;;;;;;;3.47;1.30;;;;;;;;;;4700743;30;20057;-85
2022/08/30 08:32:02;;;;;;;4.13;1.27;;;;;;;;;;4724676;30;20159;-83
2022/08/30 08:35:24;;;;;;;3.85;1.15;;;;;;;;;;4664312;30;20053;-85
2022/08/30 08:38:26;;;;;;;1.83;0.90;;;;;;;;;;4731000;30;20081;-84
2022/08/30 08:41:59;;;;;;;3.58;1.20;;;;;;;;;;4752796;30;20178;-85
2022/08/30 08:45:24;;;;;;;4.53;1.17;;;;;;;;;;4763582;29;20542;-85
2022/08/30 08:48:52;;;;;;;2.92;0.90;;;;;;;;;;4762915;29;20055;-86
2022/08/30 08:55:49;;;;;;;6.78;1.10;;;;;;;;;;4815525;29;20062;-85
2022/08/30 08:59:41;;;;;;;2.08;0.95;;;;;;;;;;4780850;29;20077;-85
2022/08/30 09:02:34;;;;;;;3.67;0.93;;;;;;;;;;4791009;29;20059;-84
2022/08/30 09:06:58;;;;;;;1.95;0.77;;;;;;;;;;4803068;29;20058;-86
2022/08/30 09:11:37;;;;;;;2.05;1.00;;;;;;;;;;4817423;29;20141;-86
2022/08/30 09:16:15;;;;;;;5.10;1.13;;;;;;;;;;4820801;29;20051;-86
2022/08/30 09:26:08;;;;;;;2.67;1.23;;;;;;;;;;4668069;30;20120;-86
2022/08/30 09:29:16;;;;;;;2.72;0.90;;;;;;;;;;4666117;30;20342;-85
2022/08/30 09:32:28;;;;;;;2.40;1.08;;;;;;;;;;4651564;30;20556;-86
2022/08/30 09:35:36;;;;;;;2.08;1.10;;;;;;;;;;4661196;30;20548;-85
2022/08/30 09:38:39;;;;;;;3.97;1.30;;;;;;;;;;4669848;30;20058;-85
2022/08/30 09:41:50;;;;;;;3.80;1.00;;;;;;;;;;4674931;30;20064;-85
2022/08/30 09:45:27;;;;;;;3.67;0.90;;;;;;;;;;4694790;30;20062;-86
2022/08/30 09:48:42;;;;;;;1.77;1.08;;;;;;;;;;4702139;30;20136;-85
2022/08/30 09:51:54;;;;;;;3.65;1.00;;;;;;;;;;4757983;29;20096;-85
2022/08/30 09:55:06;;;;;;;4.90;1.30;;;;;;;;;;4724258;30;20151;-85
2022/08/30 09:58:34;;;;;;;2.80;1.10;;;;;;;;;;4736682;30;20059;-85
2022/08/30 10:02:12;;;;;;;2.83;1.30;;;;;;;;;;4825992;29;20107;-84
2022/08/30 10:05:05;;;;;;;2.95;0.95;;;;;;;;;;4931950;28;20066;-85
2022/08/30 10:08:11;;;;;;;2.10;1.00;;;;;;;;;;4979548;28;20074;-84
2022/08/30 10:14:38;;;;;;;2.63;0.90;;;;;;;;;;4981150;28;20449;-85
2022/08/30 10:17:44;;;;;;;1.98;0.80;;;;;;;;;;4982829;28;20105;-85
2022/08/30 10:22:19;;;;;;;2.78;1.00;;;;;;;;;;4922286;29;20055;-85
2022/08/30 10:26:04;;;;;;;2.42;0.93;;;;;;;;;;4860403;29;20125;-85
2022/08/30 10:29:24;;;;;;;2.72;1.02;;;;;;;;;;4882437;29;20080;-85
2022/08/30 10:33:22;;;;;;;3.00;0.98;;;;;;;;;;4854540;29;20127;-86
2022/08/30 10:37:27;;;;;;;1.85;0.93;;;;;;;;;;4866978;29;20110;-86
2022/08/30 10:41:12;;;;;;;1.92;0.90;;;;;;;;;;4847669;29;20053;-86
2022/08/30 10:45:46;;;;;;;1.58;0.73;;;;;;;;;;4842292;29;20224;-85
2022/08/30 10:48:57;;;;;;;5.00;1.20;;;;;;;;;;4848569;29;20053;-84
2022/08/30 10:52:38;;;;;;;2.35;1.00;;;;;;;;;;4848034;29;20118;-85
2022/08/30 10:55:48;;;;;;;3.38;1.13;;;;;;;;;;4830724;29;20129;-86
2022/08/30 10:59:15;;;;;;;2.60;1.00;;;;;;;;;;4848189;29;20061;-86
2022/08/30 11:02:39;;;;;;;2.83;0.95;;;;;;;;;;4884917;29;20492;-85
2022/08/30 11:05:55;;;;;;;2.15;0.90;;;;;;;;;;4894512;29;20470;-84
2022/08/30 11:09:08;;;;;;;2.28;1.15;;;;;;;;;;4910979;29;20408;-84
2022/08/30 11:12:28;;;;;;;2.00;0.77;;;;;;;;;;4877629;29;20048;-84
2022/08/30 11:16:39;;;;;;;3.35;1.17;;;;;;;;;;4862637;29;20057;-86
2022/08/30 11:20:49;;;;;;;2.25;1.00;;;;;;;;;;4816145;29;20049;-84
2022/08/30 11:24:03;;;;;;;2.80;1.10;;;;;;;;;;4798796;29;20054;-84
2022/08/30 11:26:48;;;;;;;2.92;0.90;;;;;;;;;;4815214;29;20059;-84
2022/08/30 11:29:40;;;;;;;2.90;1.15;;;;;;;;;;4829932;29;20089;-83
2022/08/30 11:33:09;;;;;;;5.78;0.95;;;;;;;;;;4815010;29;20561;-84
2022/08/30 11:35:56;;;;;;;2.15;0.82;;;;;;;;;;4814002;29;20086;-84
2022/08/30 11:38:38;;;;;;;1.55;0.80;;;;;;;;;;4824927;29;20157;-83
2022/08/30 11:41:27;;;;;;;3.67;1.13;;;;;;;;;;4822150;29;20066;-82
2022/08/30 11:44:20;;;;;;;2.15;1.10;;;;;;;;;;4822911;29;20058;-82
2022/08/30 11:46:51;;;;;;;1.67;0.80;;;;;;;;;;4837803;29;20057;-84
2022/08/30 11:50:10;;;;;;;2.53;1.13;;;;;;;;;;4863522;29;20492;-89
2022/08/30 11:57:42;;;;;;;;;;;;;;;;;;4953625;28;20104;-86
2022/08/30 12:02:10;;;;;;;2.22;1.02;;;;;;;;;;4951460;28;19926;-86
2022/08/30 12:06:59;;;;;;;3.08;1.00;;;;;;;;;;4953190;28;20067;-86
2022/08/30 12:09:50;;;;;;;2.80;0.98;;;;;;;;;;4838280;29;20102;-86
2022/08/30 12:12:25;;;;;;;3.85;1.08;;;;;;;;;;4837391;29;20057;-86
2022/08/30 12:15:06;;;;;;;2.55;0.75;;;;;;;;;;4834871;29;20235;-86
2022/08/30 12:21:27;;;;;;;1.90;0.90;;;;;;;;;;4825712;29;20131;-85
2022/08/30 12:24:03;;;;;;;;;;;;;;;;;;4839859;29;20237;-86
2022/08/30 12:26:47;;;;;;;2.58;1.00;;;;;;;;;;4837763;29;19939;-86
2022/08/30 12:29:24;;;;;;;2.10;0.90;;;;;;;;;;4840035;29;20057;-86
2022/08/30 12:32:31;;;;;;;6.25;1.08;;;;;;;;;;4819612;29;20056;-86
2022/08/30 12:35:01;;;;;;;2.35;0.75;;;;;;;;;;4830482;29;20065;-86
2022/08/30 12:37:55;;;;;;;1.80;0.93;;;;;;;;;;4816130;29;20053;-86
2022/08/30 12:40:55;;;;;;;3.90;0.70;;;;;;;;;;4895213;29;20063;-86
2022/08/30 12:43:49;;;;;;;4.32;1.00;;;;;;;;;;4922092;29;20174;-86
2022/08/30 12:46:30;;;;;;;1.65;0.70;;;;;;;;;;4947053;28;20057;-84
2022/08/30 12:49:14;;;;;;;2.47;1.27;;;;;;;;;;4959825;28;20495;-87
2022/08/30 12:52:15;;;;;;;2.03;0.80;;;;;;;;;;4965964;28;20066;-84
2022/08/30 12:55:17;;;;;;;1.55;0.80;;;;;;;;;;4965704;28;20049;-87
2022/08/30 12:58:08;;;;;;;2.78;1.10;;;;;;;;;;4964425;28;20065;-87
2022/08/30 13:01:09;;;;;;;;;;;;;;;;;;4952379;28;20061;-87
2022/08/30 13:04:19;;;;;;;2.33;0.85;;;;;;;;;;4983249;28;19979;-87
2022/08/30 13:07:01;;;;;;;2.75;1.05;;;;;;;;;;4982299;28;20084;-86
2022/08/30 13:10:07;;;;;;;2.00;0.90;;;;;;;;;;4949541;28;20042;-85
2022/08/30 13:12:39;;;;;;;4.13;0.90;;;;;;;;;;4964403;28;20133;-85
2022/08/30 13:15:28;;;;;;;1.60;0.80;;;;;;;;;;4982192;28;20138;-86
2022/08/30 13:18:18;;;;;;;2.25;0.80;;;;;;;;;;4982502;28;20137;-86
2022/08/30 13:21:09;;;;;;;3.90;0.70;;;;;;;;;;4976603;28;20500;-85
2022/08/30 13:23:38;;;;;;;2.15;0.80;;;;;;;;;;4966711;28;20108;-85
2022/08/30 13:26:20;;;;;;;3.58;0.90;;;;;;;;;;4965568;28;20101;-85
2022/08/30 13:29:17;;;;;;;;;;;;;;;;;;4964234;28;20103;-85
2022/08/30 13:31:44;;;;;;;2.75;1.00;;;;;;;;;;4955052;28;19925;-86
2022/08/30 13:34:12;;;;;;;2.33;0.82;;;;;;;;;;4983067;28;20567;-86
2022/08/30 13:36:56;;;;;;;2.47;0.88;;;;;;;;;;4947037;28;20424;-86
2022/08/30 13:39:39;;;;;;;2.85;0.80;;;;;;;;;;4986106;28;20050;-85
2022/08/30 13:42:15;;;;;;;1.52;0.68;;;;;;;;;;4983702;28;20502;-86
2022/08/30 13:44:58;;;;;;;3.97;0.98;;;;;;;;;;4982076;28;20104;-85
2022/08/30 13:47:26;;;;;;;2.33;0.70;;;;;;;;;;4986250;28;20054;-87
2022/08/30 13:50:08;;;;;;;2.85;0.63;;;;;;;;;;4975109;28;20050;-84
2022/08/30 13:53:00;;;;;;;2.58;0.95;;;;;;;;;;4984275;28;20149;-86
2022/08/30 13:55:28;;;;;;;1.40;0.70;;;;;;;;;;4965057;28;20050;-85
2022/08/30 13:58:41;;;;;;;3.13;0.80;;;;;;;;;;4948342;28;20587;-85
2022/08/30 14:02:26;;;;;;;6.07;0.80;;;;;;;;;;4940967;28;20063;-85
2022/08/30 14:05:08;;;;;;;1.92;0.70;;;;;;;;;;4935580;28;20063;-84
2022/08/30 14:07:56;;;;;;;2.30;0.85;;;;;;;;;;4921475;28;20500;-84
2022/08/30 14:10:27;;;;;;;2.25;0.90;;;;;;;;;;4944434;28;20107;-84
2022/08/30 14:13:27;;;;;;;3.00;0.80;;;;;;;;;;4943014;28;20046;-85
2022/08/30 14:15:59;;;;;;;3.40;0.68;;;;;;;;;;4924517;29;20655;-84
2022/08/30 14:18:48;;;;;;;3.63;0.80;;;;;;;;;;4939867;28;20070;-85
2022/08/30 14:21:34;;;;;;;1.88;0.70;;;;;;;;;;4940981;28;20063;-86
2022/08/30 14:24:19;;;;;;;2.00;0.87;;;;;;;;;;4942301;28;20516;-85
2022/08/30 14:27:21;;;;;;;2.50;0.85;;;;;;;;;;4935699;28;20368;-85
2022/08/30 14:31:19;;;;;;;2.05;0.80;;;;;;;;;;4940740;28;20115;-86
2022/08/30 14:34:06;;;;;;;1.05;0.60;;;;;;;;;;4959943;28;20445;-84
2022/08/30 14:36:41;;;;;;;2.25;0.88;;;;;;;;;;4945400;28;20302;-82
2022/08/30 14:39:24;;;;;;;2.05;0.80;;;;;;;;;;4949664;28;20479;-83
2022/08/30 14:42:14;;;;;;;3.25;0.90;;;;;;;;;;4931085;28;20054;-83
2022/08/30 14:45:57;;;;;;;5.15;0.90;;;;;;;;;;4952231;28;20070;-84
2022/08/30 14:49:26;;;;;;;2.05;0.70;;;;;;;;;;4887800;29;20051;-84
2022/08/30 14:54:12;;;;;;;1.83;0.82;;;;;;;;;;4846271;29;20140;-85
2022/08/30 14:59:19;;;;;;;1.50;0.70;;;;;;;;;;4830825;29;20123;-85
2022/08/30 15:03:47;;;;;;;2.40;0.85;;;;;;;;;;4830475;29;20191;-85
2022/08/30 15:08:33;;;;;;;1.38;0.60;;;;;;;;;;4826595;29;20074;-86
2022/08/30 15:13:18;;;;;;;3.67;0.88;;;;;;;;;;4807983;29;20240;-86
2022/08/30 15:22:21;;;;;;;1.67;0.90;;;;;;;;;;4843667;29;20428;-85
2022/08/30 15:25:08;;;;;;;1.20;0.60;;;;;;;;;;4833482;29;20062;-84
2022/08/30 15:28:08;;;;;;;1.55;0.70;;;;;;;;;;4846262;29;20061;-84
2022/08/30 15:30:57;;;;;;;1.42;0.70;;;;;;;;;;4836320;29;20065;-84
2022/08/30 15:33:42;;;;;;;4.20;0.60;;;;;;;;;;4813141;29;20046;-85
2022/08/30 15:36:29;;;;;;;1.58;0.55;;;;;;;;;;4895515;29;20060;-83
2022/08/30 15:39:05;;;;;;;1.83;0.70;;;;;;;;;;4912091;29;20143;-85
2022/08/30 15:41:47;;;;;;;2.10;0.80;;;;;;;;;;4890082;29;20239;-84
2022/08/30 15:44:40;;;;;;;1.58;0.68;;;;;;;;;;4882093;29;20113;-84
2022/08/30 15:47:08;;;;;;;1.45;0.50;;;;;;;;;;4891317;29;20549;-83
2022/08/30 15:49:40;;;;;;;2.08;0.70;;;;;;;;;;4916181;29;20171;-84
2022/08/30 15:52:11;;;;;;;4.93;0.73;;;;;;;;;;4933047;28;20055;-84
2022/08/30 15:54:58;;;;;;;1.70;0.65;;;;;;;;;;4956942;28;20104;-83
2022/08/30 15:57:40;;;;;;;2.00;0.60;;;;;;;;;;4984087;28;20145;-83
2022/08/30 16:00:22;;;;;;;0.98;0.50;;;;;;;;;;4984798;28;20050;-83
2022/08/30 16:02:54;;;;;;;2.88;0.68;;;;;;;;;;4968146;28;20042;-84
2022/08/30 16:06:23;;;;;;;2.38;0.63;;;;;;;;;;4961339;28;20054;-84
2022/08/30 16:09:14;;;;;;;6.97;0.85;;;;;;;;;;4949474;28;20137;-84
2022/08/30 16:12:24;;;;;;;3.13;0.52;;;;;;;;;;4984744;28;20050;-84
2022/08/30 16:15:22;;;;;;;2.42;0.50;;;;;;;;;;4982776;28;20233;-83
2022/08/30 16:18:13;;;;;;;1.15;0.30;;;;;;;;;;4952780;28;20140;-84
2022/08/30 16:21:04;;;;;;;;;;;;;;;;;;4970297;28;20054;-83
2022/08/30 16:23:50;;;;;;;2.72;0.40;;;;;;;;;;4966358;28;19964;-83
2022/08/30 16:26:42;;;;;;;0.75;0.40;;;;;;;;;;4971480;28;20196;-83
2022/08/30 16:29:12;;;;;;;1.00;0.35;;;;;;;;;;4983423;28;20061;-84
2022/08/30 16:31:46;;;;;;;1.25;0.40;;;;;;;;;;4982464;28;20072;-84
2022/08/30 16:34:28;;;;;;;1.25;0.60;;;;;;;;;;4950934;28;20072;-83
2022/08/30 16:37:02;;;;;;;0.43;0.20;;;;;;;;;;4964838;28;20125;-85
2022/08/30 16:39:38;;;;;;;3.97;0.90;;;;;;;;;;4963440;28;20062;-84
2022/08/30 16:42:14;;;;;;;1.15;0.35;;;;;;;;;;4965390;28;20934;-83
2022/08/30 16:44:48;;;;;;;0.50;0.20;;;;;;;;;;4973735;28;20764;-84
2022/08/30 16:47:30;;;;;;;2.45;0.40;;;;;;;;;;4964198;28;20050;-83
2022/08/30 16:50:15;;;;;;;0.52;0.20;;;;;;;;;;4967976;28;20100;-84
2022/08/30 16:53:14;;;;;;;0.40;0.20;;;;;;;;;;4921656;29;20431;-84
2022/08/30 16:56:10;;;;;;;1.25;0.50;;;;;;;;;;4915158;29;20051;-83
2022/08/30 16:59:56;;;;;;;0.47;0.10;;;;;;;;;;4923337;29;20106;-84
2022/08/30 17:03:07;;;;;;;0.75;0.30;;;;;;;;;;4914551;29;20572;-84
2022/08/30 17:05:50;;;;;;;3.58;0.45;;;;;;;;;;4907274;29;20934;-85
2022/08/30 17:08:38;;;;;;;0.93;0.30;;;;;;;;;;4921635;29;20074;-86
2022/08/30 17:11:26;;;;;;;2.17;0.40;;;;;;;;;;4915325;29;20047;-85
2022/08/30 17:14:17;;;;;;;1.00;0.30;;;;;;;;;;4902510;29;20083;-86
2022/08/30 17:16:58;;;;;;;1.07;0.27;;;;;;;;;;4918498;29;20055;-86
2022/08/30 17:19:28;;;;;;;2.20;0.30;;;;;;;;;;4936520;28;20445;-86
2022/08/30 17:22:20;;;;;;;0.57;0.13;;;;;;;;;;4936201;29;20051;-85
2022/08/30 17:25:06;;;;;;;1.25;0.20;;;;;;;;;;4966131;28;20464;-84
2022/08/30 17:27:34;;;;;;;1.63;0.35;;;;;;;;;;4981503;28;20125;-84
2022/08/30 17:30:08;;;;;;;1.90;0.30;;;;;;;;;;4981024;28;20413;-84
2022/08/30 17:32:36;;;;;;;0.45;0.20;;;;;;;;;;4982177;28;20145;-85
2022/08/30 17:35:04;;;;;;;0.47;0.30;;;;;;;;;;4956017;28;20073;-84
2022/08/30 17:37:32;;;;;;;0.82;0.30;;;;;;;;;;4980687;28;20590;-85
2022/08/30 17:40:14;;;;;;;1.25;0.20;;;;;;;;;;4951004;28;20050;-85
2022/08/30 17:42:43;;;;;;;1.20;0.40;;;;;;;;;;4957447;28;20051;-85
2022/08/30 17:45:17;;;;;;;3.40;0.38;;;;;;;;;;4966282;28;20076;-85
2022/08/30 17:47:46;;;;;;;3.45;0.43;;;;;;;;;;4933381;28;20416;-85
2022/08/30 17:50:14;;;;;;;1.13;0.25;;;;;;;;;;4944137;28;20058;-85
2022/08/30 17:52:56;;;;;;;1.30;0.30;;;;;;;;;;4980859;28;20136;-86
2022/08/30 17:55:39;;;;;;;2.83;0.45;;;;;;;;;;4976146;28;20120;-85
2022/08/30 17:58:31;;;;;;;1.63;0.20;;;;;;;;;;4950517;28;20444;-85
2022/08/30 18:01:20;;;;;;;0.95;0.32;;;;;;;;;;4948561;28;20117;-82
2022/08/30 18:04:02;;;;;;;1.17;0.50;;;;;;;;;;4959178;28;20098;-83
2022/08/30 18:06:34;;;;;;;2.70;1.50;;;;;;;;;;4978207;28;20058;-81
2022/08/30 18:09:14;;;;;;;2.97;0.28;;;;;;;;;;4984141;28;20401;-82
2022/08/30 18:11:42;;;;;;;4.55;0.50;;;;;;;;;;4977746;28;20185;-82
2022/08/30 18:14:40;;;;;;;0.57;0.30;;;;;;;;;;4981640;28;20050;-83
2022/08/30 18:20:36;;;;;;;1.27;0.50;;;;;;;;;;4983910;28;20869;-83
2022/08/30 18:23:18;;;;;;;1.00;0.47;;;;;;;;;;4948498;28;20065;-83
2022/08/30 18:26:00;;;;;;;1.55;0.70;;;;;;;;;;4979110;28;20146;-83
2022/08/30 18:28:41;;;;;;;2.67;0.55;;;;;;;;;;4979762;28;20057;-84
2022/08/30 18:31:20;;;;;;;1.52;0.30;;;;;;;;;;4976679;28;20146;-85
2022/08/30 18:33:51;;;;;;;1.13;0.40;;;;;;;;;;4940171;28;20055;-84
2022/08/30 18:36:52;;;;;;;0.88;0.30;;;;;;;;;;4964265;28;20046;-84
2022/08/30 18:39:22;;;;;;;0.60;0.40;;;;;;;;;;4976217;28;20053;-83
2022/08/30 18:41:57;;;;;;;2.28;0.50;;;;;;;;;;4962052;28;20050;-83
2022/08/30 18:44:27;;;;;;;1.58;0.50;;;;;;;;;;4978709;28;20042;-83
2022/08/30 18:46:58;;;;;;;1.20;0.50;;;;;;;;;;4971573;28;20066;-83
2022/08/30 18:50:00;;;;;;;3.20;1.35;;;;;;;;;;4994586;28;20085;-82
2022/08/30 18:52:28;;;;;;;2.10;0.60;;;;;;;;;;4980081;28;20066;-83
2022/08/30 18:55:03;;;;;;;1.92;0.70;;;;;;;;;;4993894;28;20137;-83
2022/08/30 18:57:32;;;;;;;2.50;0.60;;;;;;;;;;4958476;28;20055;-83
2022/08/30 19:00:03;;;;;;;1.33;0.50;;;;;;;;;;4965865;28;20047;-83
2022/08/30 19:02:32;;;;;;;1.10;0.38;;;;;;;;;;4972510;28;20233;-83
2022/08/30 19:05:00;;;;;;;1.45;0.47;;;;;;;;;;4959017;28;20109;-81
2022/08/30 19:07:33;;;;;;;1.23;0.50;;;;;;;;;;4938314;28;20050;-83
2022/08/30 19:10:09;;;;;;;0.60;0.30;;;;;;;;;;4963207;28;20114;-81
2022/08/30 19:12:39;;;;;;;1.90;0.80;;;;;;;;;;4968699;28;20658;-81
2022/08/30 19:15:12;;;;;;;1.33;0.95;;;;;;;;;;4957640;28;20133;-81
2022/08/30 19:17:43;;;;;;;1.58;0.55;;;;;;;;;;4955784;28;20053;-84
2022/08/30 19:20:25;;;;;;;1.52;0.50;;;;;;;;;;4963591;28;20062;-84
2022/08/30 19:23:41;;;;;;;1.55;0.70;;;;;;;;;;4968777;28;20046;-84
2022/08/30 19:27:21;;;;;;;2.53;0.60;;;;;;;;;;4942307;28;20050;-84
2022/08/30 19:31:59;;;;;;;3.92;0.65;;;;;;;;;;4818653;29;20048;-83
2022/08/30 19:36:35;;;;;;;2.75;0.80;;;;;;;;;;4723363;30;20099;-85
2022/08/30 19:41:13;;;;;;;3.70;0.90;;;;;;;;;;4706354;30;20060;-84
2022/08/30 19:44:50;;;;;;;2.08;0.88;;;;;;;;;;4706131;30;20548;-84
2022/08/30 19:47:32;;;;;;;3.25;1.00;;;;;;;;;;4679231;30;20080;-84
2022/08/30 19:50:15;;;;;;;2.47;1.20;;;;;;;;;;4691905;30;20057;-84
2022/08/30 19:52:46;;;;;;;2.53;1.30;;;;;;;;;;4689477;30;20065;-84
2022/08/30 19:55:24;;;;;;;4.30;1.95;;;;;;;;;;4706107;30;20057;-84
2022/08/30 19:58:04;;;;;;;3.30;1.40;;;;;;;;;;4705346;30;20067;-84
2022/08/30 20:00:32;;;;;;;4.45;1.42;;;;;;;;;;4705917;30;20593;-84
2022/08/30 20:03:03;;;;;;;4.15;1.60;;;;;;;;;;4691916;30;20088;-82
2022/08/30 20:05:31;;;;;;;3.35;1.23;;;;;;;;;;4712120;30;20056;-85
2022/08/30 20:08:12;;;;;;;2.67;1.20;;;;;;;;;;4772360;29;20438;-85
2022/08/30 20:10:42;;;;;;;4.93;1.58;;;;;;;;;;4816052;29;20144;-85
2022/08/30 20:13:10;;;;;;;5.65;2.10;;;;;;;;;;4859584;29;20057;-86
2022/08/30 20:15:53;;;;;;;4.57;1.90;;;;;;;;;;4892119;29;20160;-85
2022/08/30 20:18:33;;;;;;;7.55;2.15;;;;;;;;;;4880672;29;20148;-83
2022/08/30 20:21:05;;;;;;;5.15;1.70;;;;;;;;;;4881223;29;21725;-84
2022/08/30 20:23:42;;;;;;;4.53;1.77;;;;;;;;;;4860168;29;20055;-84
2022/08/30 20:26:32;;;;;;;4.38;1.40;;;;;;;;;;4913730;29;20055;-84
2022/08/30 20:29:14;;;;;;;3.55;1.60;;;;;;;;;;4947611;28;20137;-84
2022/08/30 20:32:04;;;;;;;2.97;1.60;;;;;;;;;;4947097;28;20093;-85
2022/08/30 20:34:46;;;;;;;3.20;1.40;;;;;;;;;;4915067;28;20058;-84
2022/08/30 20:38:01;;;;;;;3.38;1.40;;;;;;;;;;4951833;28;20058;-85
2022/08/30 20:41:10;;;;;;;3.33;1.35;;;;;;;;;;4952919;28;20106;-85
2022/08/30 20:44:41;;;;;;;2.42;1.10;;;;;;;;;;4912329;28;20054;-86
2022/08/30 20:47:26;;;;;;;3.50;1.17;;;;;;;;;;4944444;28;20068;-85
2022/08/30 20:50:00;;;;;;;2.83;1.10;;;;;;;;;;4947011;28;20575;-85
2022/08/30 20:52:34;;;;;;;2.83;1.05;;;;;;;;;;4964473;28;20067;-85
2022/08/30 20:55:17;;;;;;;5.82;1.40;;;;;;;;;;4941574;28;20094;-86
2022/08/30 20:57:58;;;;;;;2.28;0.95;;;;;;;;;;4927431;28;20160;-86
2022/08/30 21:00:38;;;;;;;2.88;1.50;;;;;;;;;;4941797;28;20070;-85
2022/08/30 21:31:30;;;;;;;1.77;0.88;;;;;;;;;;4962195;28;20035;-84
2022/08/30 21:34:15;;;;;;;3.60;1.00;;;;;;;;;;4956595;28;20053;-85
2022/08/30 22:11:29;;;;;;;6.03;1.48;;;;;;;;;;4896792;29;20491;-85